Accueil
METAR-TAF:

METAR-TAF

Aéroports :

Sarrebruck, Allemagne

Aéroport de Sarrebruck

latitude: 49-13N, longitude: 007-07E, altitude: 322 m

Observation

Le bulletin a été fait il y a 37 minutes, à 01:20 UTC
Vent 6 kt de ouest
Température 15°C
Humidité 82%
Pression 1019 hPa
Visibilité 10 km ou plus

METAR: EDDR 240120Z AUTO 27006KT 9999 // SCT043/// 15/12 Q1019

Heure: 03:57 (01:57 UTC)

Prévision

Le bulletin a été fait il y a 2 heures et 57 minutes, à 23:00 UTC
Prévision valable du 24 à 00 UTC au 24 à 24 UTC
Vent 5 kt de ouest
Visibilité 10 km ou plus
pas de nuages en-dessous de 1500 mètres et pas de cumulonimbus.
Probabilité 30% :
Temporairement
du 24 à 08 UTC au 24 à 18 UTC
Vent 15 kt de ouest avec des rafales jusqu'à 25 kt

TAF: EDDR 232300Z 2400/2424 26005KT CAVOK PROB30 TEMPO 2408/2418 26015G25KT

Observations et prévisions météorologiques de plus de 4000 aéroports (messages METAR et TAF).

Les stations disponibles sont représentées par des disques jaunes et rouges sur la carte.

Passer la souris dessus pour voir le nom de la station.

Cliquer dessus pour voir les observations et prévisions météorologiques.

Pour changer de carte: cliquez sur les boutons verts avec une croix noire pour zoomer, sur le bouton vert avec un tiret pour effectuer un zoom arrière, ou sur les flèches vertes pour les cartes adjacentes.


METAR-TAF: